createdAt,value
2022-10-29T00:01:05.998Z,6.70
2022-10-29T00:04:18.446Z,6.95
2022-10-29T00:07:24.037Z,6.40
2022-10-29T00:10:29.411Z,6.35
2022-10-29T00:13:38.237Z,7.05
2022-10-29T00:16:43.752Z,5.97
2022-10-29T00:19:49.597Z,6.63
2022-10-29T00:22:56.489Z,6.35
2022-10-29T00:26:02.285Z,6.72
2022-10-29T00:29:10.128Z,5.95
2022-10-29T00:32:15.752Z,5.25
2022-10-29T00:35:21.786Z,6.35
2022-10-29T00:38:27.456Z,6.50
2022-10-29T00:41:33.421Z,6.22
2022-10-29T00:44:41.393Z,6.13
2022-10-29T00:47:46.532Z,5.97
2022-10-29T00:50:54.565Z,6.85
2022-10-29T00:54:01.617Z,6.32
2022-10-29T00:57:09.686Z,6.47
2022-10-29T01:00:18.808Z,6.57
2022-10-29T01:03:24.165Z,5.82
2022-10-29T01:06:29.603Z,6.90
2022-10-29T01:09:34.896Z,6.35
2022-10-29T01:12:49.536Z,6.50
2022-10-29T01:16:01.138Z,7.18
2022-10-29T01:19:13.198Z,6.95
2022-10-29T01:22:22.843Z,6.97
2022-10-29T01:25:35.491Z,7.63
2022-10-29T01:28:48.227Z,7.40
2022-10-29T01:35:04.030Z,7.03
2022-10-29T01:38:12.883Z,7.25
2022-10-29T01:41:24.254Z,6.60
2022-10-29T01:44:32.786Z,7.97
2022-10-29T01:47:41.665Z,6.28
2022-10-29T01:50:51.421Z,6.40
2022-10-29T01:53:57.157Z,7.18
2022-10-29T01:57:03.168Z,7.47
2022-10-29T02:00:10.139Z,8.20
2022-10-29T02:03:20.424Z,6.82
2022-10-29T02:06:36.343Z,8.48
2022-10-29T02:09:46.586Z,9.25
2022-10-29T02:12:53.401Z,9.15
2022-10-29T02:16:00.010Z,11.07
2022-10-29T02:19:08.674Z,11.20
2022-10-29T02:22:19.007Z,9.63
2022-10-29T02:25:24.392Z,9.98
2022-10-29T02:28:29.336Z,11.38
2022-10-29T02:31:36.353Z,9.32
2022-10-29T02:34:41.600Z,9.57
2022-10-29T02:37:51.101Z,8.90
2022-10-29T02:40:58.492Z,8.18
2022-10-29T02:44:03.897Z,8.43
2022-10-29T02:47:09.020Z,9.20
2022-10-29T02:50:14.301Z,9.82
2022-10-29T02:53:21.853Z,10.70
2022-10-29T02:56:28.270Z,9.68
2022-10-29T02:59:34.571Z,9.45
2022-10-29T03:02:39.932Z,8.07
2022-10-29T03:05:49.091Z,10.48
2022-10-29T03:08:57.259Z,10.80
2022-10-29T03:12:02.465Z,10.75
2022-10-29T03:15:08.629Z,10.15
2022-10-29T03:18:13.734Z,12.48
2022-10-29T03:21:19.405Z,11.10
2022-10-29T03:24:29.030Z,11.60
2022-10-29T03:27:34.587Z,10.10
2022-10-29T03:30:39.849Z,10.55
2022-10-29T03:33:45.033Z,11.18
2022-10-29T03:36:49.933Z,9.60
2022-10-29T03:39:58.686Z,9.10
2022-10-29T03:43:03.668Z,8.65
2022-10-29T03:46:09.628Z,9.10
2022-10-29T03:49:14.569Z,9.77
2022-10-29T03:52:19.962Z,9.88
2022-10-29T03:55:29.244Z,10.38
2022-10-29T03:58:34.930Z,8.82
2022-10-29T04:01:40.464Z,8.82
2022-10-29T04:04:46.234Z,8.20
2022-10-29T04:07:52.766Z,6.75
2022-10-29T04:11:00.773Z,6.90
2022-10-29T04:14:05.740Z,6.78
2022-10-29T04:17:11.288Z,5.95
2022-10-29T04:20:40.610Z,6.70
2022-10-29T04:28:36.735Z,5.70
2022-10-29T04:30:34.892Z,5.90
2022-10-29T04:33:40.096Z,3.55
2022-10-29T04:36:46.469Z,5.65
2022-10-29T04:39:51.847Z,4.57
2022-10-29T04:43:01.015Z,6.05
2022-10-29T04:46:07.197Z,4.60
2022-10-29T04:49:12.771Z,4.72
2022-10-29T04:52:17.945Z,4.25
2022-10-29T04:55:23.816Z,4.22
2022-10-29T04:58:32.565Z,4.40
2022-10-29T05:01:38.004Z,4.18
2022-10-29T05:04:43.277Z,4.18
2022-10-29T05:07:52.618Z,3.95
2022-10-29T05:10:59.660Z,3.70
2022-10-29T05:14:08.444Z,3.58
2022-10-29T05:17:13.474Z,3.25
2022-10-29T05:20:19.089Z,4.05
2022-10-29T05:23:24.397Z,5.03
2022-10-29T05:26:30.112Z,4.68
2022-10-29T05:29:38.824Z,3.88
2022-10-29T05:32:44.780Z,4.00
2022-10-29T05:35:50.041Z,5.07
2022-10-29T05:38:55.577Z,3.30
2022-10-29T05:42:12.184Z,4.60
2022-10-29T05:45:21.965Z,4.07
2022-10-29T05:48:30.913Z,3.47
2022-10-29T05:51:36.712Z,3.42
2022-10-29T05:54:41.696Z,5.03
2022-10-29T05:57:47.236Z,4.20
2022-10-29T06:00:58.286Z,4.10
2022-10-29T06:04:03.677Z,3.90
2022-10-29T06:07:10.549Z,3.40
2022-10-29T06:10:16.157Z,4.70
2022-10-29T06:13:21.820Z,3.83
2022-10-29T06:16:30.175Z,3.90
2022-10-29T06:19:35.546Z,3.90
2022-10-29T06:22:41.125Z,3.85
2022-10-29T06:25:46.479Z,3.95
2022-10-29T06:28:51.842Z,4.05
2022-10-29T06:32:02.358Z,3.85
2022-10-29T06:35:08.057Z,4.22
2022-10-29T06:38:13.432Z,4.50
2022-10-29T06:41:18.749Z,3.70
2022-10-29T06:44:23.706Z,4.07
2022-10-29T06:47:33.683Z,3.55
2022-10-29T06:50:40.689Z,3.88
2022-10-29T06:53:54.343Z,4.18
2022-10-29T06:57:01.591Z,3.58
2022-10-29T07:00:08.783Z,3.47
2022-10-29T07:03:17.968Z,3.33
2022-10-29T07:06:25.033Z,3.40
2022-10-29T07:09:30.198Z,4.28
2022-10-29T07:12:35.996Z,4.60
2022-10-29T07:15:42.485Z,3.80
2022-10-29T07:18:53.974Z,3.25
2022-10-29T07:21:59.043Z,3.85
2022-10-29T07:25:08.203Z,3.50
2022-10-29T07:28:14.666Z,3.75
2022-10-29T07:31:21.109Z,3.25
2022-10-29T07:34:28.754Z,3.22
2022-10-29T07:37:34.193Z,3.65
2022-10-29T07:40:39.704Z,3.00
2022-10-29T07:43:45.267Z,3.58
2022-10-29T07:46:54.341Z,2.15
2022-10-29T07:50:03.082Z,2.75
2022-10-29T07:53:09.533Z,3.33
2022-10-29T07:56:14.982Z,3.40
2022-10-29T07:59:22.212Z,2.92
2022-10-29T08:02:27.746Z,3.42
2022-10-29T08:05:36.175Z,2.97
2022-10-29T08:08:46.125Z,3.92
2022-10-29T08:11:51.340Z,4.35
2022-10-29T08:15:08.962Z,3.88
2022-10-29T08:18:17.919Z,3.08
2022-10-29T08:21:26.657Z,3.55
2022-10-29T08:24:32.077Z,3.22
2022-10-29T08:27:37.592Z,2.92
2022-10-29T08:30:44.260Z,3.10
2022-10-29T08:33:50.721Z,4.80
2022-10-29T08:36:59.154Z,3.10
2022-10-29T08:40:04.697Z,3.20
2022-10-29T08:43:25.333Z,3.60
2022-10-29T08:46:36.293Z,4.03
2022-10-29T08:49:44.977Z,2.67
2022-10-29T08:53:19.511Z,2.67
2022-10-29T08:56:21.437Z,3.28
2022-10-29T08:59:30.771Z,3.75
2022-10-29T09:02:37.381Z,3.15
2022-10-29T09:05:50.918Z,2.78
2022-10-29T09:09:13.504Z,3.75
2022-10-29T09:12:32.392Z,2.65
2022-10-29T09:15:47.608Z,2.13
2022-10-29T09:19:11.225Z,2.58
2022-10-29T09:22:20.630Z,3.22
2022-10-29T09:25:33.298Z,3.30
2022-10-29T09:28:47.798Z,2.58
2022-10-29T09:31:57.410Z,2.97
2022-10-29T09:35:06.858Z,2.30
2022-10-29T09:38:18.432Z,2.78
2022-10-29T09:41:30.118Z,2.47
2022-10-29T09:44:38.716Z,2.97
2022-10-29T09:47:48.962Z,3.03
2022-10-29T09:51:01.232Z,4.05
2022-10-29T09:54:09.598Z,3.20
2022-10-29T09:57:21.027Z,1.88
2022-10-29T10:00:29.092Z,2.47
2022-10-29T10:03:39.119Z,2.53
2022-10-29T10:07:02.767Z,2.28
2022-10-29T10:10:09.634Z,2.92
2022-10-29T10:13:18.968Z,2.50
2022-10-29T10:16:27.214Z,2.53
2022-10-29T10:19:35.245Z,2.78
2022-10-29T10:22:49.476Z,2.40
2022-10-29T10:25:58.803Z,3.03
2022-10-29T10:29:14.221Z,2.97
2022-10-29T10:32:20.113Z,2.53
2022-10-29T10:35:32.051Z,2.30
2022-10-29T10:38:43.985Z,2.83
2022-10-29T10:41:52.756Z,3.42
2022-10-29T10:45:03.062Z,3.05
2022-10-29T10:48:12.023Z,2.33
2022-10-29T10:51:21.371Z,2.50
2022-10-29T10:54:33.079Z,2.30
2022-10-29T10:57:41.243Z,1.60
2022-10-29T11:00:52.670Z,2.38
2022-10-29T11:04:05.071Z,3.08
2022-10-29T11:07:15.444Z,2.40
2022-10-29T11:10:22.245Z,2.70
2022-10-29T11:13:31.167Z,3.70
2022-10-29T11:16:47.778Z,1.70
2022-10-29T11:20:00.225Z,2.83
2022-10-29T11:23:16.683Z,2.88
2022-10-29T11:26:25.235Z,2.08
2022-10-29T11:29:39.984Z,2.22
2022-10-29T11:33:02.224Z,1.65
2022-10-29T11:36:11.293Z,2.10
2022-10-29T11:39:19.153Z,2.00
2022-10-29T11:42:26.029Z,2.00
2022-10-29T11:45:41.307Z,2.10
2022-10-29T11:48:56.750Z,1.70
2022-10-29T11:52:07.786Z,1.85
2022-10-29T11:55:22.887Z,1.90
2022-10-29T11:58:38.152Z,3.08
2022-10-29T12:01:49.335Z,1.85
2022-10-29T12:05:02.895Z,1.52
2022-10-29T12:08:13.485Z,1.92
2022-10-29T12:11:25.123Z,2.40
2022-10-29T12:14:34.653Z,1.23
2022-10-29T12:17:43.729Z,2.40
2022-10-29T12:20:56.156Z,2.00
2022-10-29T13:36:57.172Z,2.35
2022-10-29T13:40:20.309Z,3.40
2022-10-29T13:43:26.657Z,2.78
2022-10-29T13:46:45.536Z,2.47
2022-10-29T13:49:54.901Z,2.70
2022-10-29T13:53:12.247Z,2.33
2022-10-29T13:56:23.119Z,2.17
2022-10-29T13:59:45.269Z,2.10
2022-10-29T14:02:53.727Z,2.10
2022-10-29T14:06:01.876Z,2.63
2022-10-29T14:09:21.542Z,2.20
2022-10-29T14:12:30.904Z,2.40
2022-10-29T14:15:39.415Z,2.70
2022-10-29T14:18:45.208Z,2.92
2022-10-29T14:21:53.225Z,2.80
2022-10-29T14:25:07.902Z,2.47
2022-10-29T14:28:23.408Z,2.67
2022-10-29T14:31:29.250Z,2.30
2022-10-29T14:34:39.513Z,2.05
2022-10-29T14:37:46.274Z,2.13
2022-10-29T14:40:55.085Z,2.33
2022-10-29T14:44:05.807Z,1.85
2022-10-29T14:47:16.171Z,3.47
2022-10-29T14:50:22.813Z,2.40
2022-10-29T14:53:35.563Z,2.50
2022-10-29T14:56:45.812Z,3.22
2022-10-29T15:00:00.761Z,2.03
2022-10-29T15:03:21.448Z,2.25
2022-10-29T15:06:33.444Z,2.45
2022-10-29T15:09:56.960Z,2.35
2022-10-29T15:13:17.368Z,1.90
2022-10-29T15:16:24.024Z,2.60
2022-10-29T15:19:32.043Z,2.40
2022-10-29T15:22:39.814Z,2.08
2022-10-29T15:25:50.218Z,2.45
2022-10-29T15:28:59.495Z,2.40
2022-10-29T15:32:09.620Z,2.30
2022-10-29T15:35:21.484Z,2.25
2022-10-29T15:38:53.947Z,2.83
2022-10-29T15:42:01.111Z,2.60
2022-10-29T15:45:22.371Z,2.05
2022-10-29T15:48:38.882Z,2.17
2022-10-29T15:51:53.391Z,3.13
2022-10-29T15:54:58.406Z,2.90
2022-10-29T15:58:06.358Z,2.53
2022-10-29T16:01:12.612Z,2.20
2022-10-29T16:04:29.876Z,2.75
2022-10-29T16:07:35.526Z,3.17
2022-10-29T16:10:41.824Z,3.58
2022-10-29T16:13:51.842Z,3.00
2022-10-29T16:17:00.240Z,3.10
2022-10-29T16:20:10.066Z,3.47
2022-10-29T16:23:19.129Z,3.50
2022-10-29T16:26:26.406Z,3.17
2022-10-29T16:29:32.698Z,2.95
2022-10-29T16:32:37.778Z,3.40
2022-10-29T16:35:46.345Z,4.63
2022-10-29T16:38:52.256Z,3.67
2022-10-29T16:42:08.215Z,3.47
2022-10-29T16:45:15.992Z,3.22
2022-10-29T16:48:22.477Z,4.05
2022-10-29T16:51:31.177Z,4.15
2022-10-29T16:54:42.027Z,4.65
2022-10-29T16:57:47.213Z,4.95
2022-10-29T17:00:53.032Z,4.60
2022-10-29T17:03:58.218Z,4.93
2022-10-29T17:07:06.832Z,4.93
2022-10-29T17:10:12.130Z,5.07
2022-10-29T17:13:17.767Z,5.13
2022-10-29T17:16:25.804Z,4.90
2022-10-29T17:19:33.618Z,5.22
2022-10-29T17:22:42.131Z,5.28
2022-10-29T17:25:51.097Z,5.13
2022-10-29T17:28:56.252Z,5.75
2022-10-29T17:35:28.992Z,5.50
2022-10-29T17:38:37.137Z,5.70
2022-10-29T17:41:42.968Z,5.68
2022-10-29T17:44:48.458Z,4.75
2022-10-29T17:47:57.752Z,4.95
2022-10-29T17:51:05.607Z,4.85
2022-10-29T17:54:28.265Z,4.47
2022-10-29T17:57:35.415Z,4.88
2022-10-29T18:00:40.835Z,4.95
2022-10-29T18:03:47.213Z,5.28
2022-10-29T18:07:02.723Z,4.55
2022-10-29T18:10:12.951Z,5.72
2022-10-29T18:13:22.111Z,5.45
2022-10-29T18:16:28.963Z,6.03
2022-10-29T18:19:34.896Z,5.00
2022-10-29T18:22:42.054Z,5.57
2022-10-29T18:26:03.132Z,6.07
2022-10-29T18:29:12.380Z,6.10
2022-10-29T18:32:20.408Z,5.65
2022-10-29T18:35:27.419Z,6.22
2022-10-29T18:38:32.674Z,5.60
2022-10-29T18:41:41.087Z,7.32
2022-10-29T18:44:46.376Z,7.30
2022-10-29T18:47:52.125Z,6.72
2022-10-29T18:51:06.789Z,6.57
2022-10-29T18:54:13.505Z,5.97
2022-10-29T18:57:22.703Z,6.10
2022-10-29T19:00:31.196Z,6.50
2022-10-29T19:03:36.620Z,6.07
2022-10-29T19:06:42.825Z,5.72
2022-10-29T19:09:48.792Z,6.05
2022-10-29T19:13:00.102Z,5.25
2022-10-29T19:16:09.762Z,4.75
2022-10-29T19:19:19.787Z,6.18
2022-10-29T19:22:40.389Z,5.18
2022-10-29T19:25:46.811Z,5.40
2022-10-29T19:28:55.099Z,4.88
2022-10-29T19:32:05.983Z,5.55
2022-10-29T19:35:12.257Z,5.25
2022-10-29T19:38:19.914Z,5.10
2022-10-29T19:41:27.805Z,5.82
2022-10-29T19:44:36.725Z,5.68
2022-10-29T19:47:44.370Z,5.00
2022-10-29T19:50:56.610Z,5.93
2022-10-29T19:57:12.134Z,6.07
2022-10-29T20:00:21.454Z,5.43
2022-10-29T20:03:31.753Z,5.70
2022-10-29T20:06:39.036Z,5.75
2022-10-29T20:09:47.573Z,5.55
2022-10-29T20:12:53.808Z,5.65
2022-10-29T20:16:03.196Z,5.38
2022-10-29T20:19:10.127Z,5.70
2022-10-29T20:22:18.406Z,5.80
2022-10-29T20:25:25.274Z,6.55
2022-10-29T20:28:31.484Z,5.63
2022-10-29T20:31:41.664Z,6.13
2022-10-29T20:34:49.945Z,6.72
2022-10-29T20:37:55.614Z,6.07
2022-10-29T20:41:01.863Z,6.85
2022-10-29T20:44:07.708Z,5.55
2022-10-29T20:47:16.419Z,5.70
2022-10-29T20:50:24.002Z,5.72
2022-10-29T20:53:29.883Z,6.53
2022-10-29T20:56:35.215Z,6.30
2022-10-29T20:59:45.689Z,6.82
2022-10-29T21:02:53.745Z,5.55
2022-10-29T21:06:03.369Z,6.93
2022-10-29T21:09:08.578Z,6.57
2022-10-29T21:12:14.115Z,5.90
2022-10-29T21:15:21.926Z,6.35
2022-10-29T21:18:30.048Z,6.40
2022-10-29T21:21:40.363Z,6.95
2022-10-29T21:24:53.757Z,7.30
2022-10-29T21:28:00.267Z,7.20
2022-10-29T21:31:09.102Z,7.00
2022-10-29T21:34:17.130Z,7.10
2022-10-29T21:37:23.003Z,6.78
2022-10-29T21:40:30.129Z,7.70
2022-10-29T21:43:37.338Z,7.00
2022-10-29T21:46:42.860Z,7.30
2022-10-29T21:49:51.997Z,8.43
2022-10-29T21:53:02.029Z,7.35
2022-10-29T21:56:13.458Z,6.63
2022-10-29T21:59:18.674Z,6.70
2022-10-29T22:02:26.384Z,7.18
2022-10-29T22:05:36.248Z,7.15
2022-10-29T22:08:45.058Z,7.07
2022-10-29T22:11:51.185Z,7.32
2022-10-29T22:14:57.789Z,7.25
2022-10-29T22:18:03.358Z,7.32
2022-10-29T22:21:14.071Z,7.30
2022-10-29T22:24:22.451Z,7.00
2022-10-29T22:27:30.295Z,7.45
2022-10-29T22:30:38.267Z,6.95
2022-10-29T22:33:59.091Z,7.93
2022-10-29T22:37:06.746Z,7.57
2022-10-29T22:40:13.222Z,7.45
2022-10-29T22:43:23.108Z,8.23
2022-10-29T22:46:28.927Z,7.90
2022-10-29T22:49:34.411Z,8.25
2022-10-29T22:52:50.161Z,7.97
2022-10-29T22:55:58.040Z,8.32
2022-10-29T22:59:03.910Z,8.13
2022-10-29T23:02:12.167Z,8.00
2022-10-29T23:05:20.751Z,8.70
2022-10-29T23:08:32.241Z,8.77
2022-10-29T23:11:41.120Z,8.85
2022-10-29T23:14:47.360Z,7.47
2022-10-29T23:17:56.243Z,8.55
2022-10-29T23:21:02.471Z,8.27
2022-10-29T23:24:13.193Z,9.02
2022-10-29T23:27:18.921Z,8.13
2022-10-29T23:30:26.678Z,8.95
2022-10-29T23:33:34.604Z,8.40
2022-10-29T23:36:40.981Z,9.20
2022-10-29T23:39:49.074Z,9.07
2022-10-29T23:42:54.431Z,8.32
2022-10-29T23:45:59.777Z,8.38
2022-10-29T23:49:08.081Z,8.50
2022-10-29T23:52:13.377Z,9.77
2022-10-29T23:55:24.038Z,9.25
2022-10-29T23:58:29.338Z,9.70
